createdAt,value
2023-05-09T00:01:59.393Z,4.28
2023-05-09T00:05:02.980Z,4.11
2023-05-09T00:08:05.683Z,3.95
2023-05-09T00:11:08.277Z,3.96
2023-05-09T00:14:12.620Z,3.99
2023-05-09T00:17:15.856Z,4.01
2023-05-09T00:20:18.657Z,3.98
2023-05-09T00:23:24.232Z,4.03
2023-05-09T00:26:29.977Z,4.05
2023-05-09T00:29:35.438Z,3.99
2023-05-09T00:32:38.109Z,3.94
2023-05-09T00:35:40.699Z,3.76
2023-05-09T00:38:43.466Z,3.61
2023-05-09T00:41:46.142Z,3.73
2023-05-09T00:44:51.392Z,3.73
2023-05-09T00:47:54.286Z,3.72
2023-05-09T00:50:57.147Z,3.56
2023-05-09T00:54:00.044Z,3.51
2023-05-09T00:57:03.249Z,3.51
2023-05-09T01:00:06.793Z,3.40
2023-05-09T01:03:09.822Z,3.35
2023-05-09T01:06:43.666Z,3.66
2023-05-09T01:10:05.151Z,3.72
2023-05-09T01:13:26.679Z,3.63
2023-05-09T01:16:43.806Z,3.47
2023-05-09T01:19:54.792Z,3.34
2023-05-09T01:23:15.549Z,3.38
2023-05-09T01:26:52.412Z,3.38
2023-05-09T01:29:59.699Z,3.42
2023-05-09T01:33:05.643Z,3.37
2023-05-09T01:36:12.828Z,3.20
2023-05-09T01:39:16.471Z,3.36
2023-05-09T01:42:20.137Z,3.22
2023-05-09T01:45:24.601Z,3.30
2023-05-09T01:48:30.999Z,3.28
2023-05-09T01:51:34.617Z,3.36
2023-05-09T01:54:39.196Z,3.22
2023-05-09T01:57:43.469Z,2.87
2023-05-09T02:00:47.538Z,3.01
2023-05-09T02:03:52.733Z,3.26
2023-05-09T02:06:55.943Z,3.25
2023-05-09T02:10:00.724Z,3.13
2023-05-09T02:13:04.067Z,3.07
2023-05-09T02:16:07.893Z,3.00
2023-05-09T02:19:11.988Z,3.00
2023-05-09T02:22:15.096Z,3.00
2023-05-09T02:25:18.764Z,2.99
2023-05-09T02:28:23.225Z,2.78
2023-05-09T02:31:28.635Z,2.77
2023-05-09T02:34:31.586Z,2.81
2023-05-09T02:37:35.624Z,3.02
2023-05-09T02:40:44.920Z,2.84
2023-05-09T02:43:47.545Z,2.72
2023-05-09T02:46:50.811Z,2.57
2023-05-09T02:49:55.355Z,2.94
2023-05-09T02:52:58.065Z,3.11
2023-05-09T02:56:00.714Z,3.12
2023-05-09T02:59:03.341Z,3.24
2023-05-09T03:02:06.600Z,3.26
2023-05-09T03:05:09.699Z,3.36
2023-05-09T03:08:12.904Z,3.07
2023-05-09T03:11:15.685Z,3.05
2023-05-09T03:14:23.082Z,2.92
2023-05-09T03:17:25.778Z,2.77
2023-05-09T03:20:28.382Z,2.71
2023-05-09T03:23:31.105Z,2.69
2023-05-09T03:26:36.906Z,2.75
2023-05-09T03:29:39.513Z,2.54
2023-05-09T03:32:44.512Z,2.52
2023-05-09T03:35:47.162Z,2.54
2023-05-09T03:38:49.884Z,2.68
2023-05-09T03:41:54.754Z,2.78
2023-05-09T03:44:58.165Z,2.83
2023-05-09T03:48:00.824Z,2.86
2023-05-09T03:51:04.104Z,3.01
2023-05-09T03:54:10.251Z,3.23
2023-05-09T03:57:12.941Z,3.14
2023-05-09T04:00:16.078Z,3.10
2023-05-09T04:03:27.189Z,3.20
2023-05-09T04:06:34.289Z,3.33
2023-05-09T04:09:37.834Z,3.61
2023-05-09T04:12:40.856Z,3.68
2023-05-09T04:15:44.068Z,3.75
2023-05-09T04:18:47.203Z,3.92
2023-05-09T04:21:50.982Z,4.13
2023-05-09T04:24:56.429Z,4.27
2023-05-09T04:27:59.238Z,4.35
2023-05-09T04:31:02.056Z,4.38
2023-05-09T04:34:06.630Z,4.53
2023-05-09T04:37:11.243Z,4.67
2023-05-09T04:40:14.816Z,4.59
2023-05-09T04:43:28.242Z,4.47
2023-05-09T04:46:39.685Z,4.71
2023-05-09T04:49:43.091Z,4.76
2023-05-09T04:52:45.715Z,4.92
2023-05-09T04:55:48.616Z,5.24
2023-05-09T04:58:51.625Z,5.44
2023-05-09T05:01:54.958Z,5.58
2023-05-09T05:05:10.190Z,5.80
2023-05-09T05:08:18.170Z,6.02
2023-05-09T05:11:21.724Z,6.22
2023-05-09T05:14:24.974Z,6.34
2023-05-09T05:17:29.703Z,6.42
2023-05-09T05:20:58.473Z,6.58
2023-05-09T05:24:05.253Z,6.72
2023-05-09T05:27:08.701Z,6.87
2023-05-09T05:30:12.608Z,7.04
2023-05-09T05:33:16.272Z,7.31
2023-05-09T05:36:28.615Z,7.52
2023-05-09T05:39:41.297Z,7.91
2023-05-09T05:46:29.512Z,9.15
2023-05-09T05:49:32.869Z,9.35
2023-05-09T05:52:38.996Z,9.34
2023-05-09T05:55:42.486Z,9.62
2023-05-09T05:58:46.028Z,9.50
2023-05-09T06:01:49.477Z,9.50
2023-05-09T06:04:53.969Z,9.70
2023-05-09T06:08:00.124Z,9.70
2023-05-09T06:11:03.114Z,9.76
2023-05-09T06:14:07.229Z,9.72
2023-05-09T06:17:10.125Z,9.76
2023-05-09T06:20:13.093Z,9.80
2023-05-09T06:23:15.843Z,9.82
2023-05-09T06:26:20.073Z,9.77
2023-05-09T06:29:35.769Z,9.91
2023-05-09T06:32:46.262Z,9.86
2023-05-09T06:35:48.954Z,9.99
2023-05-09T06:39:00.185Z,10.06
2023-05-09T06:42:03.394Z,10.06
2023-05-09T06:45:08.952Z,10.19
2023-05-09T06:48:15.521Z,10.33
2023-05-09T06:51:18.698Z,10.44
2023-05-09T06:54:22.126Z,10.01
2023-05-09T06:57:24.966Z,10.50
2023-05-09T07:00:27.650Z,10.64
2023-05-09T07:03:30.518Z,10.80
2023-05-09T07:06:33.381Z,10.82
2023-05-09T07:09:35.964Z,10.84
2023-05-09T07:12:38.840Z,10.63
2023-05-09T07:15:42.964Z,10.93
2023-05-09T07:18:45.901Z,10.82
2023-05-09T07:21:58.466Z,10.95
2023-05-09T07:25:01.221Z,10.79
2023-05-09T07:28:04.016Z,11.43
2023-05-09T07:31:06.653Z,11.47
2023-05-09T07:34:09.246Z,11.59
2023-05-09T07:37:13.694Z,11.65
2023-05-09T07:40:18.346Z,11.97
2023-05-09T07:43:21.187Z,12.03
2023-05-09T07:46:23.866Z,12.21
2023-05-09T07:49:26.603Z,12.20
2023-05-09T07:52:29.218Z,12.17
2023-05-09T07:55:31.948Z,12.12
2023-05-09T07:58:34.596Z,12.25
2023-05-09T08:01:37.182Z,12.32
2023-05-09T08:04:41.865Z,12.41
2023-05-09T08:07:44.810Z,12.46
2023-05-09T08:10:50.005Z,12.69
2023-05-09T08:13:52.753Z,12.83
2023-05-09T08:16:55.366Z,12.82
2023-05-09T08:19:58.401Z,13.05
2023-05-09T08:23:00.972Z,13.20
2023-05-09T08:26:04.063Z,13.26
2023-05-09T08:29:06.685Z,13.24
2023-05-09T08:32:09.532Z,13.30
2023-05-09T08:35:12.539Z,13.45
2023-05-09T08:38:15.391Z,13.36
2023-05-09T08:41:18.240Z,13.52
2023-05-09T08:44:23.581Z,13.62
2023-05-09T08:47:26.659Z,13.67
2023-05-09T08:50:29.448Z,13.66
2023-05-09T08:53:33.211Z,13.74
2023-05-09T08:57:01.594Z,13.79
2023-05-09T09:00:20.465Z,13.41
2023-05-09T09:03:36.280Z,14.00
2023-05-09T09:06:54.220Z,14.22
2023-05-09T09:09:59.996Z,14.11
2023-05-09T09:13:18.705Z,14.40
2023-05-09T09:16:40.868Z,14.47
2023-05-09T09:19:58.232Z,14.37
2023-05-09T09:23:14.995Z,14.53
2023-05-09T09:26:19.492Z,15.02
2023-05-09T09:29:30.546Z,14.97
2023-05-09T09:32:34.574Z,15.04
2023-05-09T09:35:41.236Z,15.14
2023-05-09T09:38:45.224Z,15.01
2023-05-09T09:41:48.619Z,15.24
2023-05-09T09:45:02.561Z,15.63
2023-05-09T09:48:07.142Z,15.59
2023-05-09T09:51:12.962Z,15.57
2023-05-09T09:54:15.584Z,15.65
2023-05-09T09:57:37.220Z,15.62
2023-05-09T10:00:39.876Z,15.34
2023-05-09T10:03:46.701Z,15.85
2023-05-09T10:06:58.636Z,15.82
2023-05-09T10:10:06.431Z,16.33
2023-05-09T10:13:12.173Z,16.00
2023-05-09T10:16:14.977Z,16.34
2023-05-09T10:19:22.030Z,16.08
2023-05-09T10:22:25.021Z,16.29
2023-05-09T10:25:31.904Z,16.36
2023-05-09T10:28:36.291Z,16.76
2023-05-09T10:31:41.256Z,16.60
2023-05-09T10:34:51.554Z,16.49
2023-05-09T10:37:58.026Z,16.88
2023-05-09T10:41:01.087Z,16.50
2023-05-09T10:44:04.161Z,16.84
2023-05-09T10:47:09.416Z,16.91
2023-05-09T10:50:13.361Z,17.19
2023-05-09T10:53:17.966Z,16.84
2023-05-09T10:56:33.146Z,17.16
2023-05-09T10:59:38.704Z,17.61
2023-05-09T11:02:41.636Z,17.76
2023-05-09T11:05:44.324Z,17.81
2023-05-09T11:08:47.832Z,17.82
2023-05-09T11:11:55.114Z,17.97
2023-05-09T11:15:04.581Z,17.85
2023-05-09T11:18:08.704Z,17.77
2023-05-09T11:21:11.886Z,17.78
2023-05-09T11:24:17.971Z,18.37
2023-05-09T11:27:31.214Z,18.42
2023-05-09T11:30:41.984Z,18.79
2023-05-09T11:33:47.196Z,18.77
2023-05-09T11:36:50.118Z,18.42
2023-05-09T11:40:05.925Z,18.45
2023-05-09T11:43:20.349Z,17.29
2023-05-09T11:46:31.829Z,17.12
2023-05-09T11:49:34.802Z,17.25
2023-05-09T11:52:39.127Z,17.65
2023-05-09T11:55:42.128Z,17.54
2023-05-09T11:58:46.951Z,17.61
2023-05-09T12:01:55.010Z,18.16
2023-05-09T12:05:06.982Z,18.66
2023-05-09T12:08:09.945Z,19.07
2023-05-09T12:11:13.990Z,19.34
2023-05-09T12:14:35.491Z,19.83
2023-05-09T12:17:38.261Z,19.43
2023-05-09T12:20:51.205Z,19.77
2023-05-09T12:23:56.894Z,20.43
2023-05-09T12:27:04.018Z,20.39
2023-05-09T12:30:12.127Z,20.89
2023-05-09T12:33:16.076Z,20.92
2023-05-09T12:36:18.940Z,21.07
2023-05-09T12:39:23.180Z,21.22
2023-05-09T12:42:34.216Z,21.09
2023-05-09T12:45:39.417Z,20.11
2023-05-09T12:48:46.991Z,19.63
2023-05-09T12:51:51.185Z,19.79
2023-05-09T12:54:54.587Z,20.09
2023-05-09T12:58:02.532Z,20.00
2023-05-09T13:01:06.168Z,18.74
2023-05-09T13:04:10.510Z,18.80
2023-05-09T13:07:13.858Z,20.10
2023-05-09T13:10:19.601Z,20.90
2023-05-09T13:13:26.586Z,21.50
2023-05-09T13:16:29.443Z,22.21
2023-05-09T13:19:39.442Z,21.97
2023-05-09T13:22:42.269Z,23.70
2023-05-09T13:25:45.159Z,24.46
2023-05-09T13:28:47.945Z,23.24
2023-05-09T13:31:50.662Z,24.36
2023-05-09T13:34:53.294Z,23.68
2023-05-09T13:37:58.530Z,21.36
2023-05-09T13:41:01.723Z,19.76
2023-05-09T13:44:06.605Z,19.47
2023-05-09T13:47:11.215Z,24.88
2023-05-09T13:50:14.197Z,26.81
2023-05-09T13:53:17.405Z,25.92
2023-05-09T13:56:20.098Z,27.67
2023-05-09T13:59:22.661Z,28.79
2023-05-09T14:02:25.264Z,30.39
2023-05-09T14:05:27.829Z,29.23
2023-05-09T14:08:30.512Z,29.76
2023-05-09T14:11:33.272Z,29.61
2023-05-09T14:14:35.876Z,24.75
2023-05-09T14:17:38.864Z,27.42
2023-05-09T14:20:42.396Z,29.50
2023-05-09T14:23:44.933Z,29.21
2023-05-09T14:26:47.877Z,31.32
2023-05-09T14:29:50.634Z,31.16
2023-05-09T14:32:53.408Z,28.74
2023-05-09T14:36:01.354Z,24.84
2023-05-09T14:39:04.195Z,22.40
2023-05-09T14:42:08.502Z,20.68
2023-05-09T14:45:13.103Z,19.72
2023-05-09T14:48:16.301Z,19.24
2023-05-09T14:51:19.067Z,20.61
2023-05-09T14:54:21.630Z,25.75
2023-05-09T14:57:24.287Z,27.33
2023-05-09T15:00:28.272Z,28.13
2023-05-09T15:03:31.381Z,29.83
2023-05-09T15:06:35.038Z,30.02
2023-05-09T15:09:38.374Z,29.10
2023-05-09T15:12:41.044Z,28.97
2023-05-09T15:15:43.880Z,29.31
2023-05-09T15:18:46.534Z,23.57
2023-05-09T15:21:49.145Z,21.16
2023-05-09T15:24:51.891Z,20.06
2023-05-09T15:27:54.561Z,19.61
2023-05-09T15:30:58.169Z,19.43
2023-05-09T15:34:01.533Z,19.05
2023-05-09T15:37:04.098Z,19.06
2023-05-09T15:40:10.042Z,23.51
2023-05-09T15:43:13.160Z,26.63
2023-05-09T15:46:15.859Z,26.97
2023-05-09T15:49:18.780Z,27.96
2023-05-09T15:52:21.582Z,28.68
2023-05-09T15:55:24.545Z,29.71
2023-05-09T15:58:27.934Z,30.12
2023-05-09T16:01:30.604Z,31.12
2023-05-09T16:04:33.710Z,30.47
2023-05-09T16:07:36.484Z,30.35
2023-05-09T16:10:39.095Z,29.23
2023-05-09T16:13:41.829Z,28.44
2023-05-09T16:16:44.426Z,27.64
2023-05-09T16:19:47.206Z,27.69
2023-05-09T16:22:49.866Z,25.24
2023-05-09T16:25:52.379Z,25.66
2023-05-09T16:28:54.940Z,27.07
2023-05-09T16:31:58.370Z,27.90
2023-05-09T16:35:00.994Z,27.68
2023-05-09T16:38:03.806Z,26.99
2023-05-09T16:41:06.470Z,26.99
2023-05-09T16:44:09.175Z,27.52
2023-05-09T16:47:11.839Z,27.04
2023-05-09T16:50:14.618Z,26.84
2023-05-09T16:53:19.087Z,24.27
2023-05-09T16:56:25.486Z,23.26
2023-05-09T16:59:28.116Z,22.92
2023-05-09T17:02:30.841Z,20.59
2023-05-09T17:05:33.796Z,19.13
2023-05-09T17:08:36.509Z,21.37
2023-05-09T17:11:39.130Z,22.83
2023-05-09T17:14:41.807Z,23.22
2023-05-09T17:17:44.493Z,23.49
2023-05-09T17:20:47.314Z,23.28
2023-05-09T17:23:49.952Z,22.46
2023-05-09T17:26:52.784Z,22.15
2023-05-09T17:29:55.479Z,21.43
2023-05-09T17:32:58.232Z,20.88
2023-05-09T17:36:00.902Z,20.32
2023-05-09T17:39:04.823Z,19.66
2023-05-09T17:42:07.948Z,19.23
2023-05-09T17:45:14.055Z,18.83
2023-05-09T17:48:16.903Z,18.38
2023-05-09T17:51:19.541Z,17.96
2023-05-09T17:54:22.150Z,17.25
2023-05-09T17:57:24.744Z,16.42
2023-05-09T18:00:27.360Z,15.48
2023-05-09T18:03:32.343Z,14.84
2023-05-09T18:06:35.154Z,14.43
2023-05-09T18:09:40.171Z,14.13
2023-05-09T18:12:45.239Z,13.89
2023-05-09T18:15:48.366Z,13.63
2023-05-09T18:18:50.997Z,13.46
2023-05-09T18:21:56.433Z,13.23
2023-05-09T18:24:59.249Z,13.11
2023-05-09T18:28:01.920Z,12.89
2023-05-09T18:31:06.384Z,12.67
2023-05-09T18:34:12.382Z,12.55
2023-05-09T18:37:15.232Z,12.37
2023-05-09T18:40:18.034Z,12.25
2023-05-09T18:43:23.449Z,12.22
2023-05-09T18:46:28.108Z,12.18
2023-05-09T18:49:30.799Z,12.08
2023-05-09T18:52:34.420Z,12.03
2023-05-09T18:55:37.213Z,12.09
2023-05-09T18:58:40.013Z,12.03
2023-05-09T19:01:44.132Z,12.03
2023-05-09T19:04:48.187Z,11.98
2023-05-09T19:07:51.836Z,11.81
2023-05-09T19:10:56.022Z,11.79
2023-05-09T19:14:00.098Z,11.67
2023-05-09T19:17:04.438Z,11.52
2023-05-09T19:20:08.551Z,11.43
2023-05-09T19:23:12.192Z,11.20
2023-05-09T19:26:18.226Z,11.18
2023-05-09T19:29:20.947Z,11.23
2023-05-09T19:32:23.633Z,11.11
2023-05-09T19:35:26.692Z,11.04
2023-05-09T19:38:30.799Z,11.03
2023-05-09T19:41:33.714Z,10.88
2023-05-09T19:44:36.299Z,10.89
2023-05-09T19:47:39.546Z,10.97
2023-05-09T19:50:43.154Z,10.88
2023-05-09T19:53:46.981Z,10.95
2023-05-09T19:56:50.807Z,10.99
2023-05-09T19:59:55.249Z,11.09
2023-05-09T20:02:57.961Z,11.16
2023-05-09T20:06:01.333Z,11.29
2023-05-09T20:09:04.806Z,11.37
2023-05-09T20:12:07.600Z,11.37
2023-05-09T20:15:10.509Z,11.24
2023-05-09T20:18:15.013Z,11.25
2023-05-09T20:21:17.964Z,11.14
2023-05-09T20:24:20.778Z,11.15
2023-05-09T20:27:23.727Z,11.09
2023-05-09T20:30:26.533Z,11.02
2023-05-09T20:33:29.588Z,11.00
2023-05-09T20:36:32.631Z,10.94
2023-05-09T20:39:35.567Z,10.82
2023-05-09T20:42:38.215Z,10.69
2023-05-09T20:45:41.050Z,10.56
2023-05-09T20:48:44.389Z,10.52
2023-05-09T20:51:47.060Z,10.49
2023-05-09T20:54:50.778Z,10.45
2023-05-09T20:57:54.640Z,10.41
2023-05-09T21:00:57.537Z,10.13
2023-05-09T21:04:00.354Z,10.31
2023-05-09T21:07:03.604Z,10.41
2023-05-09T21:10:06.820Z,10.49
2023-05-09T21:13:09.687Z,10.38
2023-05-09T21:16:12.293Z,10.10
2023-05-09T21:19:15.734Z,10.30
2023-05-09T21:22:18.487Z,10.44
2023-05-09T21:25:21.289Z,10.46
2023-05-09T21:28:24.110Z,10.50
2023-05-09T21:31:28.969Z,10.41
2023-05-09T21:34:31.616Z,10.40
2023-05-09T21:37:37.432Z,10.50
2023-05-09T21:40:40.891Z,10.52
2023-05-09T21:43:43.590Z,10.33
2023-05-09T21:46:46.506Z,10.27
2023-05-09T21:49:51.756Z,10.27
2023-05-09T21:52:56.338Z,10.39
2023-05-09T21:55:58.986Z,10.42
2023-05-09T21:59:01.569Z,10.32
2023-05-09T22:02:04.149Z,10.11
2023-05-09T22:05:06.927Z,10.15
2023-05-09T22:08:09.765Z,9.93
2023-05-09T22:11:14.116Z,9.55
2023-05-09T22:14:17.355Z,9.23
2023-05-09T22:17:20.089Z,8.91
2023-05-09T22:20:22.745Z,8.77
2023-05-09T22:23:25.488Z,8.68
2023-05-09T22:26:28.058Z,8.53
2023-05-09T22:29:34.228Z,8.46
2023-05-09T22:32:36.873Z,8.37
2023-05-09T22:35:39.724Z,8.33
2023-05-09T22:38:43.210Z,8.24
2023-05-09T22:41:45.822Z,8.13
2023-05-09T22:44:49.933Z,7.97
2023-05-09T22:47:52.585Z,7.79
2023-05-09T22:50:55.127Z,7.57
2023-05-09T22:53:57.726Z,7.68
2023-05-09T22:57:00.501Z,8.04
2023-05-09T23:00:03.300Z,8.47
2023-05-09T23:03:06.056Z,8.53
2023-05-09T23:06:08.654Z,8.63
2023-05-09T23:09:11.241Z,8.68
2023-05-09T23:12:13.920Z,8.71
2023-05-09T23:15:16.616Z,8.62
2023-05-09T23:18:21.166Z,8.55
2023-05-09T23:21:23.885Z,8.59
2023-05-09T23:24:26.582Z,8.57
2023-05-09T23:27:31.284Z,8.43
2023-05-09T23:30:33.919Z,8.50
2023-05-09T23:33:36.492Z,8.63
2023-05-09T23:36:39.491Z,8.79
2023-05-09T23:39:42.041Z,8.79
2023-05-09T23:42:44.584Z,8.74
2023-05-09T23:45:47.136Z,8.67
2023-05-09T23:48:49.748Z,8.49
2023-05-09T23:51:52.337Z,8.43
2023-05-09T23:54:54.906Z,8.59
2023-05-09T23:57:57.662Z,8.38
